NCAR-RAP Real-Time Weather Data

Output produced by METARs form (12 May 2021  12:02 UTC)
found at http://weather.rap.ucar.edu/surface/
 
KCPR 121153Z 25006KT 10SM CLR 00/M02 A3020 RMK AO2 SLP223 T00001022 10006 21028 53004
KCPR 121053Z 33003KT 10SM CLR M03/M04 A3019 RMK AO2 SLP226 T10281039
KCPR 120953Z AUTO 03004KT 10SM FEW080 M02/M04 A3018 RMK AO2 SLP223 T10221039
KCPR 120853Z AUTO 00000KT 10SM CLR M02/M03 A3018 RMK AO2 SLP224 T10171033 58004
KCPR 120753Z AUTO 00000KT 10SM SCT070 M01/M02 A3019 RMK AO2 SLP221 T10061022
KCPR 120653Z AUTO 05004KT 10SM CLR M01/M02 A3020 RMK AO2 SLP229 T10061022 401111006
KCPR 120553Z AUTO 01003KT 10SM CLR M01/M03 A3020 RMK AO2 SLP231 T10061028 10094 21006 50004
KCPR 120453Z AUTO 00000KT 10SM CLR 03/M01 A3021 RMK AO2 SLP229 T00331006
KCPR 120353Z AUTO 00000KT 10SM CLR 03/M01 A3021 RMK AO2 SLP233 T00331006
KCPR 120253Z 12004KT 10SM CLR 06/00 A3019 RMK AO2 SLP219 T00560000 53007
KCPR 120153Z 17006KT 10SM SCT039 BKN049 OVC055 08/02 A3018 RMK AO2 SLP214 T00780017
KCPR 120053Z COR 07008KT 10SM BKN095 09/M01 A3017 RMK AO2 SLP208 T00941006
KCPR 112353Z 11007KT 10SM FEW090 09/M01 A3016 RMK AO2 SLP208 60000 T00941006 10111 20067 55001
KCPR 112253Z 10007KT 10SM OVC080 10/M01 A3016 RMK AO2 SLP205 T01001011
KCPR 112153Z 12008KT 10SM BKN075 OVC090 09/M01 A3016 RMK AO2 RAE05 SLP206 P0000 T00941006